Aniak, Alaska
Current Conditions -  °F | °C
As of 2:56 PM on Friday 21 Nov 2014 (Local Time) from PANI Reporting Station
Clear Clear  
Wind Chill: 17°   Ceiling: Unl
Heat Index: 27°   Visibility: 10mi
Dew Point: 18°   Wind: 9mph
Humidity: 69%   Direction: 350°N
Pressure: 28.92"   Gusts: NA
Location:  61.58°N, 159.54°W
Report Text: PANI 212356Z AUTO 35008KT 10SM CLR M03/M08 A2892 RMK AO1 11030 21040 400301040 57010
Loading
Personal Weather Stations






























Interactive Weather Map New forecast layout! Learn more

10-Day Weather Forecast

Advertisements
Track Severe Weather on mobile